Terminal Aerodrome Forecast
Issued by NWS

Home | Current Version | Previous Version | Graphics & Text | Print | Product List | Glossary On
Versions: 1 2 3 4 5 6 7 8 9 10 11 12 13 14 15 16 17 18 19 20 21
000
FTUS43 KICT 021127
TAFRSL
TAF
KRSL 021127Z 0212/0312 17010KT P6SM VCSH BKN100
     FM021500 18018G28KT P6SM SCT100
     FM030000 17015KT P6SM SCT250
     FM030600 18016KT P6SM BKN250=

USA.gov is the U.S. government's official web portal to all federal, state and local government web resources and services.